createdAt,value
2023-01-18T00:02:17.914Z,24.88
2023-01-18T00:04:46.749Z,23.25
2023-01-18T00:07:15.353Z,32.05
2023-01-18T00:09:44.017Z,25.55
2023-01-18T00:12:12.752Z,29.90
2023-01-18T00:17:11.780Z,23.30
2023-01-18T00:19:40.705Z,30.27
2023-01-18T00:22:09.738Z,29.85
2023-01-18T00:24:38.622Z,28.83
2023-01-18T00:27:10.179Z,29.25
2023-01-18T00:29:39.382Z,30.80
2023-01-18T00:32:10.098Z,28.55
2023-01-18T00:34:39.057Z,23.98
2023-01-18T00:37:07.864Z,37.20
2023-01-18T00:39:36.747Z,30.27
2023-01-18T00:42:22.997Z,24.80
2023-01-18T00:44:51.878Z,31.38
2023-01-18T00:47:22.158Z,30.80
2023-01-18T00:49:51.042Z,23.05
2023-01-18T00:52:19.820Z,26.20
2023-01-18T00:54:48.735Z,24.85
2023-01-18T00:57:17.715Z,31.02
2023-01-18T00:59:47.490Z,27.98
2023-01-18T01:02:17.181Z,23.05
2023-01-18T01:05:05.028Z,30.10
2023-01-18T01:07:34.084Z,22.63
2023-01-18T01:10:09.361Z,27.02
2023-01-18T01:12:56.053Z,27.52
2023-01-18T01:15:42.488Z,28.77
2023-01-18T01:18:31.290Z,26.75
2023-01-18T01:21:22.601Z,28.65
2023-01-18T01:24:08.911Z,25.52
2023-01-18T01:26:37.908Z,27.80
2023-01-18T01:29:06.697Z,32.38
2023-01-18T01:31:35.492Z,25.98
2023-01-18T01:34:04.895Z,22.75
2023-01-18T01:36:35.356Z,18.48
2023-01-18T01:39:07.404Z,22.77
2023-01-18T01:41:37.019Z,21.45
2023-01-18T01:44:46.232Z,26.30
2023-01-18T01:47:25.478Z,26.48
2023-01-18T01:49:57.707Z,25.48
2023-01-18T01:52:33.846Z,24.50
2023-01-18T01:55:09.035Z,22.17
2023-01-18T01:57:41.882Z,25.23
2023-01-18T02:00:15.160Z,24.17
2023-01-18T02:02:47.754Z,26.48
2023-01-18T02:05:18.852Z,24.58
2023-01-18T02:07:49.690Z,21.38
2023-01-18T02:10:19.188Z,26.90
2023-01-18T02:12:51.581Z,25.48
2023-01-18T02:15:23.142Z,24.58
2023-01-18T02:18:07.491Z,23.85
2023-01-18T02:21:10.011Z,22.35
2023-01-18T02:24:17.884Z,19.35
2023-01-18T02:27:06.718Z,19.75
2023-01-18T02:30:11.356Z,26.35
2023-01-18T02:32:52.398Z,22.80
2023-01-18T02:35:29.013Z,27.83
2023-01-18T02:38:06.355Z,23.90
2023-01-18T02:40:44.356Z,27.27
2023-01-18T02:43:30.501Z,26.17
2023-01-18T02:46:25.171Z,26.60
2023-01-18T02:49:00.514Z,24.20
2023-01-18T02:51:29.376Z,24.10
2023-01-18T02:53:59.270Z,22.75
2023-01-18T02:56:32.698Z,24.60
2023-01-18T02:59:06.877Z,24.55
2023-01-18T03:01:41.418Z,24.38
2023-01-18T03:04:17.351Z,24.73
2023-01-18T03:06:51.807Z,19.88
2023-01-18T03:09:27.367Z,25.63
2023-01-18T03:12:03.032Z,22.38
2023-01-18T03:14:42.134Z,20.50
2023-01-18T03:17:19.049Z,20.02
2023-01-18T03:20:07.780Z,21.20
2023-01-18T03:22:57.565Z,19.15
2023-01-18T03:25:30.445Z,18.85
2023-01-18T03:28:19.314Z,17.38
2023-01-18T03:31:08.094Z,24.10
2023-01-18T03:33:46.573Z,24.00
2023-01-18T03:38:55.378Z,19.83
2023-01-18T03:41:28.386Z,22.02
2023-01-18T03:44:01.707Z,20.88
2023-01-18T03:46:33.858Z,19.85
2023-01-18T03:49:03.075Z,20.23
2023-01-18T03:51:48.544Z,22.35
2023-01-18T03:54:25.477Z,24.25
2023-01-18T03:56:59.435Z,20.55
2023-01-18T03:59:34.716Z,23.30
2023-01-18T04:02:04.626Z,26.25
2023-01-18T04:04:33.637Z,19.90
2023-01-18T04:07:03.880Z,20.77
2023-01-18T04:09:32.636Z,22.95
2023-01-18T04:14:29.761Z,22.05
2023-01-18T04:19:28.402Z,20.38
2023-01-18T04:21:57.261Z,15.52
2023-01-18T04:24:27.436Z,23.00
2023-01-18T04:26:56.161Z,17.67
2023-01-18T04:31:53.967Z,19.55
2023-01-18T04:34:23.910Z,17.73
2023-01-18T04:36:53.833Z,25.08
2023-01-18T04:39:22.571Z,20.50
2023-01-18T04:41:52.920Z,22.38
2023-01-18T04:44:21.746Z,23.48
2023-01-18T04:46:51.335Z,18.73
2023-01-18T04:49:20.266Z,18.67
2023-01-18T04:51:49.555Z,19.83
2023-01-18T04:54:20.162Z,22.05
2023-01-18T04:56:49.107Z,16.50
2023-01-18T04:59:19.388Z,20.60
2023-01-18T05:01:48.233Z,18.27
2023-01-18T05:06:45.789Z,18.10
2023-01-18T05:11:43.492Z,18.50
2023-01-18T05:14:12.153Z,20.67
2023-01-18T05:16:42.346Z,17.73
2023-01-18T05:19:11.812Z,21.83
2023-01-18T05:21:41.422Z,19.75
2023-01-18T05:24:10.664Z,16.45
2023-01-18T05:26:40.462Z,21.77
2023-01-18T05:29:09.467Z,20.23
2023-01-18T05:31:38.441Z,20.20
2023-01-18T05:34:09.085Z,20.00
2023-01-18T05:36:37.999Z,18.08
2023-01-18T05:39:06.911Z,17.58
2023-01-18T05:41:35.647Z,20.92
2023-01-18T05:46:33.425Z,21.35
2023-01-18T05:49:02.836Z,22.50
2023-01-18T05:51:33.422Z,22.67
2023-01-18T05:54:02.363Z,17.77
2023-01-18T05:56:31.568Z,15.25
2023-01-18T05:59:00.364Z,20.90
2023-01-18T06:01:30.473Z,20.20
2023-01-18T06:03:59.771Z,17.33
2023-01-18T06:06:28.705Z,18.73
2023-01-18T06:08:58.783Z,21.80
2023-01-18T06:11:27.559Z,20.38
2023-01-18T06:13:56.232Z,15.63
2023-01-18T06:18:53.765Z,19.92
2023-01-18T06:21:22.652Z,20.83
2023-01-18T06:23:51.472Z,23.15
2023-01-18T06:26:21.526Z,20.13
2023-01-18T06:28:50.623Z,18.85
2023-01-18T06:31:19.826Z,14.93
2023-01-18T06:33:48.861Z,15.98
2023-01-18T06:36:17.950Z,20.40
2023-01-18T06:38:46.849Z,21.65
2023-01-18T06:41:16.209Z,20.60
2023-01-18T06:43:46.808Z,21.77
2023-01-18T06:46:15.861Z,15.65
2023-01-18T06:48:44.795Z,24.40
2023-01-18T06:51:13.665Z,22.38
2023-01-18T06:53:42.515Z,17.10
2023-01-18T06:56:12.016Z,20.58
2023-01-18T06:58:40.852Z,22.50
2023-01-18T07:03:40.390Z,19.98
2023-01-18T07:06:09.318Z,14.90
2023-01-18T07:08:40.379Z,20.92
2023-01-18T07:11:10.827Z,17.00
2023-01-18T07:13:40.591Z,23.35
2023-01-18T07:16:13.513Z,18.63
2023-01-18T07:18:44.789Z,24.38
2023-01-18T07:21:15.272Z,21.77
2023-01-18T07:23:46.509Z,25.27
2023-01-18T07:26:17.766Z,17.58
2023-01-18T07:28:48.493Z,25.45
2023-01-18T07:31:20.390Z,18.33
2023-01-18T07:33:49.220Z,19.92
2023-01-18T07:36:18.322Z,17.30
2023-01-18T07:38:47.533Z,17.73
2023-01-18T07:41:17.201Z,20.30
2023-01-18T07:43:47.333Z,24.42
2023-01-18T07:46:21.004Z,18.77
2023-01-18T07:48:50.292Z,25.45
2023-01-18T07:51:18.956Z,24.15
2023-01-18T07:56:18.630Z,27.30
2023-01-18T07:58:48.487Z,24.30
2023-01-18T08:01:20.767Z,16.95
2023-01-18T08:03:50.943Z,18.80
2023-01-18T08:06:25.089Z,21.75
2023-01-18T08:08:55.852Z,20.02
2023-01-18T08:11:25.383Z,23.67
2023-01-18T08:13:55.642Z,21.08
2023-01-18T08:16:27.057Z,21.13
2023-01-18T08:18:55.830Z,18.73
2023-01-18T08:21:24.730Z,17.48
2023-01-18T08:23:55.313Z,20.38
2023-01-18T08:26:24.288Z,20.15
2023-01-18T08:28:53.290Z,25.08
2023-01-18T08:31:23.703Z,23.52
2023-01-18T08:33:54.388Z,17.25
2023-01-18T08:36:25.215Z,25.92
2023-01-18T08:38:57.084Z,19.27
2023-01-18T08:41:28.707Z,20.23
2023-01-18T08:43:59.877Z,21.05
2023-01-18T08:46:30.292Z,23.17
2023-01-18T08:49:00.795Z,16.90
2023-01-18T08:51:30.257Z,23.05
2023-01-18T08:54:01.507Z,25.55
2023-01-18T08:56:31.101Z,35.65
2023-01-18T08:59:01.063Z,22.55
2023-01-18T09:01:30.864Z,25.55
2023-01-18T09:04:01.157Z,21.02
2023-01-18T09:06:32.516Z,18.92
2023-01-18T09:09:02.800Z,21.40
2023-01-18T09:11:31.747Z,25.65
2023-01-18T09:14:02.273Z,29.80
2023-01-18T09:16:32.934Z,24.63
2023-01-18T09:19:06.527Z,25.73
2023-01-18T09:21:35.634Z,22.85
2023-01-18T09:24:05.287Z,21.25
2023-01-18T09:26:34.292Z,22.55
2023-01-18T09:29:03.309Z,19.92
2023-01-18T09:34:18.465Z,20.85
2023-01-18T09:36:52.934Z,26.50
2023-01-18T09:39:22.552Z,22.25
2023-01-18T09:41:54.209Z,21.73
2023-01-18T09:44:30.294Z,20.15
2023-01-18T09:47:05.354Z,24.38
2023-01-18T09:49:39.732Z,25.08
2023-01-18T09:52:23.958Z,19.27
2023-01-18T09:54:59.117Z,24.23
2023-01-18T09:57:53.209Z,24.70
2023-01-18T10:00:25.052Z,15.80
2023-01-18T10:03:01.322Z,15.57
2023-01-18T10:05:36.246Z,21.35
2023-01-18T10:08:13.691Z,22.48
2023-01-18T10:10:59.747Z,27.17
2023-01-18T10:13:40.966Z,18.17
2023-01-18T10:16:15.769Z,21.92
2023-01-18T10:18:48.442Z,21.00
2023-01-18T10:21:25.386Z,18.10
2023-01-18T10:24:07.887Z,20.00
2023-01-18T10:26:40.851Z,19.23
2023-01-18T10:29:17.549Z,24.67
2023-01-18T10:31:57.518Z,21.13
2023-01-18T10:34:32.358Z,27.95
2023-01-18T10:37:14.637Z,22.80
2023-01-18T10:39:52.689Z,21.48
2023-01-18T10:42:24.921Z,21.48
2023-01-18T10:44:54.148Z,24.88
2023-01-18T10:47:23.282Z,22.88
2023-01-18T10:49:52.806Z,23.23
2023-01-18T10:52:27.392Z,22.30
2023-01-18T10:54:58.311Z,25.33
2023-01-18T10:57:33.089Z,20.88
2023-01-18T11:00:02.465Z,24.50
2023-01-18T11:02:38.683Z,23.52
2023-01-18T11:05:24.151Z,27.08
2023-01-18T11:08:21.904Z,20.38
2023-01-18T11:11:01.072Z,25.23
2023-01-18T11:13:35.008Z,25.45
2023-01-18T11:16:14.074Z,28.88
2023-01-18T11:19:04.556Z,20.38
2023-01-18T11:21:46.473Z,18.38
2023-01-18T11:24:19.447Z,24.42
2023-01-18T11:26:57.376Z,24.30
2023-01-18T11:29:29.247Z,23.17
2023-01-18T11:32:05.486Z,28.83
2023-01-18T11:34:37.877Z,21.23
2023-01-18T11:37:30.357Z,21.08
2023-01-18T11:40:00.699Z,24.85
2023-01-18T11:42:32.026Z,22.00
2023-01-18T11:45:16.228Z,21.15
2023-01-18T11:48:10.079Z,20.65
2023-01-18T11:50:44.036Z,18.20
2023-01-18T11:53:23.953Z,17.98
2023-01-18T11:56:05.155Z,16.17
2023-01-18T11:58:36.146Z,19.20
2023-01-18T12:01:24.602Z,20.48
2023-01-18T12:06:39.778Z,21.88
2023-01-18T12:09:18.617Z,22.40
2023-01-18T12:12:18.205Z,17.45
2023-01-18T12:15:08.234Z,21.10
2023-01-18T12:18:11.393Z,16.45
2023-01-18T12:20:53.250Z,19.13
2023-01-18T12:23:52.357Z,18.55
2023-01-18T12:26:39.260Z,15.50
2023-01-18T12:29:27.480Z,20.88
2023-01-18T12:32:06.356Z,23.08
2023-01-18T12:34:43.390Z,15.63
2023-01-18T12:37:36.648Z,21.27
2023-01-18T12:40:33.608Z,16.40
2023-01-18T12:43:15.080Z,22.60
2023-01-18T12:45:56.033Z,19.42
2023-01-18T12:48:32.025Z,21.65
2023-01-18T12:51:01.849Z,21.60
2023-01-18T12:53:38.473Z,21.25
2023-01-18T12:56:14.738Z,20.88
2023-01-18T12:58:45.116Z,18.02
2023-01-18T13:01:22.338Z,18.48
2023-01-18T13:03:54.838Z,16.00
2023-01-18T13:06:24.666Z,17.73
2023-01-18T13:08:58.711Z,19.85
2023-01-18T13:11:31.530Z,20.95
2023-01-18T13:14:09.603Z,21.25
2023-01-18T13:16:46.658Z,18.15
2023-01-18T13:19:24.513Z,16.25
2023-01-18T13:22:06.916Z,22.45
2023-01-18T13:24:52.840Z,21.42
2023-01-18T13:27:21.969Z,16.63
2023-01-18T13:29:51.069Z,19.55
2023-01-18T13:32:32.601Z,16.52
2023-01-18T13:35:19.637Z,20.25
2023-01-18T13:37:54.449Z,17.73
2023-01-18T13:40:41.438Z,16.52
2023-01-18T13:43:32.425Z,19.65
2023-01-18T13:46:05.744Z,16.92
2023-01-18T13:48:47.575Z,16.58
2023-01-18T13:51:52.604Z,17.77
2023-01-18T13:55:05.549Z,20.38
2023-01-18T13:57:36.962Z,15.88
2023-01-18T14:00:07.720Z,18.10
2023-01-18T14:02:43.604Z,20.45
2023-01-18T14:05:25.547Z,17.88
2023-01-18T14:07:57.751Z,18.40
2023-01-18T14:10:32.121Z,19.75
2023-01-18T14:13:02.647Z,15.23
2023-01-18T14:15:48.340Z,18.92
2023-01-18T14:18:24.496Z,21.23
2023-01-18T14:21:13.279Z,18.60
2023-01-18T14:24:06.198Z,17.10
2023-01-18T14:26:38.247Z,15.77
2023-01-18T14:29:10.697Z,14.60
2023-01-18T14:31:44.263Z,14.60
2023-01-18T14:34:27.463Z,16.40
2023-01-18T14:36:57.987Z,17.98
2023-01-18T14:39:28.997Z,17.15
2023-01-18T14:42:01.735Z,17.35
2023-01-18T14:44:56.330Z,16.25
2023-01-18T14:47:29.968Z,12.45
2023-01-18T14:49:58.947Z,16.08
2023-01-18T14:52:32.209Z,15.38
2023-01-18T14:55:00.836Z,17.50
2023-01-18T14:57:29.436Z,17.23
2023-01-18T15:02:39.542Z,17.75
2023-01-18T15:05:12.729Z,15.75
2023-01-18T15:07:45.991Z,20.80
2023-01-18T15:10:18.877Z,12.30
2023-01-18T15:12:54.225Z,12.70
2023-01-18T15:15:28.001Z,17.83
2023-01-18T15:18:02.103Z,16.65
2023-01-18T15:20:31.090Z,20.42
2023-01-18T15:23:01.993Z,23.95
2023-01-18T15:25:33.857Z,15.30
2023-01-18T15:28:18.594Z,19.15
2023-01-18T15:30:53.870Z,13.38
2023-01-18T15:33:24.963Z,17.63
2023-01-18T15:35:57.523Z,16.38
2023-01-18T15:38:28.112Z,16.95
2023-01-18T15:41:01.961Z,15.23
2023-01-18T15:43:35.474Z,15.63
2023-01-18T15:46:04.590Z,19.23
2023-01-18T15:48:40.712Z,16.35
2023-01-18T15:51:11.225Z,14.52
2023-01-18T15:53:46.143Z,14.25
2023-01-18T15:56:18.999Z,18.45
2023-01-18T15:58:51.317Z,18.65
2023-01-18T16:01:25.207Z,14.50
2023-01-18T16:03:59.862Z,15.55
2023-01-18T16:06:37.631Z,20.70
2023-01-18T16:09:19.482Z,19.10
2023-01-18T16:11:52.524Z,21.17
2023-01-18T16:14:31.127Z,18.85
2023-01-18T16:17:04.849Z,20.58
2023-01-18T16:19:36.162Z,20.25
2023-01-18T16:22:06.925Z,23.20
2023-01-18T16:24:39.976Z,18.05
2023-01-18T16:27:13.286Z,17.60
2023-01-18T16:29:45.071Z,20.45
2023-01-18T16:32:18.322Z,17.23
2023-01-18T16:34:47.075Z,18.50
2023-01-18T16:39:45.776Z,23.63
2023-01-18T16:42:14.923Z,23.55
2023-01-18T16:44:45.926Z,23.83
2023-01-18T16:47:17.288Z,21.40
2023-01-18T16:49:46.823Z,24.23
2023-01-18T16:52:15.883Z,19.27
2023-01-18T16:54:47.780Z,21.83
2023-01-18T16:57:25.157Z,20.50
2023-01-18T16:59:53.765Z,21.13
2023-01-18T17:02:23.081Z,22.85
2023-01-18T17:04:51.677Z,25.17
2023-01-18T17:07:20.430Z,23.05
2023-01-18T17:12:21.073Z,21.98
2023-01-18T17:14:49.791Z,22.55
2023-01-18T17:17:18.565Z,26.70
2023-01-18T17:19:47.944Z,23.30
2023-01-18T17:22:19.830Z,23.95
2023-01-18T17:24:53.469Z,21.42
2023-01-18T17:27:23.571Z,20.98
2023-01-18T17:29:52.526Z,21.05
2023-01-18T17:34:49.475Z,22.13
2023-01-18T17:37:18.741Z,24.92
2023-01-18T17:40:02.562Z,18.23
2023-01-18T17:42:40.223Z,25.10
2023-01-18T17:45:15.688Z,29.05
2023-01-18T17:47:45.015Z,21.02
2023-01-18T17:50:19.215Z,21.60
2023-01-18T17:52:48.141Z,26.63
2023-01-18T17:57:55.700Z,20.25
2023-01-18T18:00:24.791Z,19.15
2023-01-18T18:02:57.278Z,22.42
2023-01-18T18:05:26.890Z,28.35
2023-01-18T18:07:55.873Z,19.38
2023-01-18T18:10:24.514Z,23.27
2023-01-18T18:15:23.802Z,24.50
2023-01-18T18:17:52.863Z,30.00
2023-01-18T18:20:23.011Z,21.13
2023-01-18T18:22:51.691Z,27.00
2023-01-18T18:27:51.962Z,28.48
2023-01-18T18:30:21.987Z,28.73
2023-01-18T18:32:53.044Z,27.70
2023-01-18T18:35:26.294Z,26.85
2023-01-18T18:37:55.740Z,29.67
2023-01-18T18:40:24.853Z,30.38
2023-01-18T18:43:02.246Z,25.38
2023-01-18T18:45:33.942Z,28.50
2023-01-18T18:48:02.745Z,32.92
2023-01-18T18:50:32.069Z,32.13
2023-01-18T18:53:01.185Z,24.85
2023-01-18T18:55:30.176Z,33.28
2023-01-18T19:00:27.473Z,31.05
2023-01-18T19:03:02.699Z,41.80
2023-01-18T19:05:34.159Z,40.97
2023-01-18T19:08:02.950Z,41.08
2023-01-18T19:13:00.143Z,33.20
2023-01-18T19:15:29.126Z,38.97
2023-01-18T19:20:28.099Z,36.17
2023-01-18T19:22:56.608Z,36.25
2023-01-18T19:25:25.059Z,38.53
2023-01-18T19:27:53.565Z,40.92
2023-01-18T19:30:22.389Z,35.30
2023-01-18T19:32:55.347Z,35.65
2023-01-18T19:35:49.167Z,42.22
2023-01-18T19:38:21.033Z,35.67
2023-01-18T19:40:49.602Z,35.90
2023-01-18T19:43:18.139Z,35.40
2023-01-18T19:45:46.660Z,37.97
2023-01-18T19:48:15.236Z,39.58
2023-01-18T19:50:46.080Z,36.45
2023-01-18T19:53:14.575Z,37.45
2023-01-18T19:55:43.003Z,41.45
2023-01-18T19:58:11.394Z,41.53
2023-01-18T20:00:41.431Z,43.70
2023-01-18T20:03:14.408Z,43.42
2023-01-18T20:05:46.202Z,40.72
2023-01-18T20:08:14.740Z,40.22
2023-01-18T20:10:43.221Z,35.03
2023-01-18T20:13:11.733Z,39.33
2023-01-18T20:15:41.796Z,37.95
2023-01-18T20:18:10.378Z,61.13
2023-01-18T20:20:38.910Z,40.55
2023-01-18T20:23:08.723Z,56.00
2023-01-18T20:25:39.969Z,43.97
2023-01-18T20:28:10.651Z,45.90
2023-01-18T20:30:39.112Z,43.75
2023-01-18T20:33:07.563Z,42.83
2023-01-18T20:35:36.014Z,53.50
2023-01-18T20:38:09.862Z,49.10
2023-01-18T20:40:40.386Z,48.60
2023-01-18T20:43:09.013Z,36.15
2023-01-18T20:45:38.141Z,39.75
2023-01-18T20:48:07.584Z,35.67
2023-01-18T20:50:36.170Z,38.13
2023-01-18T20:53:04.927Z,40.25
2023-01-18T20:55:33.902Z,38.03
2023-01-18T20:58:04.040Z,43.03
2023-01-18T21:00:32.538Z,47.10
2023-01-18T21:03:01.281Z,32.53
2023-01-18T21:05:30.243Z,36.00
2023-01-18T21:07:59.073Z,38.25
2023-01-18T21:10:38.723Z,38.17
2023-01-18T21:13:09.729Z,42.55
2023-01-18T21:15:39.167Z,38.88
2023-01-18T21:18:08.518Z,30.30
2023-01-18T21:20:36.902Z,32.13
2023-01-18T21:23:05.436Z,32.58
2023-01-18T21:25:33.930Z,38.05
2023-01-18T21:28:02.794Z,31.65
2023-01-18T21:30:32.723Z,41.47
2023-01-18T21:33:01.094Z,35.95
2023-01-18T21:35:29.932Z,35.10
2023-01-18T21:38:03.000Z,33.85
2023-01-18T21:40:31.955Z,40.83
